Time;durP1;ratioP1;P1;durP2;ratioP2;P2;SDS_P1;SDS_P2;PMS_P1;PMS_P2;Temp;Humidity;BMP_temperature;BMP_pressure;BME280_temperature;BME280_humidity;BME280_pressure;Samples;Min_cycle;Max_cycle;Signal;HPM_P1;HPM_P2
2022/10/19 04:34:10;;;;;;;19.75;12.95;;;;;;;;;;6120253;23;20073;-84
2022/10/19 04:44:40;;;;;;;18.27;13.38;;;;;;;;;;6074426;23;20030;-84
2022/10/19 04:58:13;;;;;;;139.57;33.20;;;;;;;;;;6094042;23;20034;-88
2022/10/19 05:00:45;;;;;;;15.90;10.70;;;;;;;;;;6048661;23;20049;-86
2022/10/19 05:03:13;;;;;;;19.67;11.30;;;;;;;;;;6078775;23;20035;-85
2022/10/19 05:05:41;;;;;;;23.98;13.80;;;;;;;;;;6076606;23;20521;-86
2022/10/19 05:08:11;;;;;;;15.98;11.43;;;;;;;;;;6052500;23;20381;-86
2022/10/19 05:10:41;;;;;;;21.88;15.15;;;;;;;;;;6042670;23;20446;-85
2022/10/19 05:13:14;;;;;;;26.77;15.55;;;;;;;;;;6076695;23;20071;-83
2022/10/19 05:15:42;;;;;;;17.42;11.52;;;;;;;;;;6068859;23;20037;-84
2022/10/19 05:18:10;;;;;;;22.23;14.15;;;;;;;;;;6100495;23;20622;-86
2022/10/19 05:20:38;;;;;;;21.02;15.20;;;;;;;;;;6066994;23;20023;-86
2022/10/19 05:23:13;;;;;;;19.17;12.90;;;;;;;;;;6065900;23;20030;-85
2022/10/19 05:25:51;;;;;;;16.60;13.05;;;;;;;;;;6067443;23;20018;-87
2022/10/19 05:28:21;;;;;;;19.73;12.85;;;;;;;;;;6043858;23;20037;-87
2022/10/19 05:30:58;;;;;;;26.83;15.50;;;;;;;;;;6024131;23;20026;-88
2022/10/19 07:05:54;;;;;;;16.55;10.68;;;;;;;;;;6146472;23;20341;-86
2022/10/19 07:09:23;;;;;;;18.05;11.10;;;;;;;;;;6156852;23;20024;-86
2022/10/19 11:26:19;;;;;;;8.95;7.65;;;;;;;;;;6112228;23;20041;-89
2022/10/19 12:02:11;;;;;;;11.50;8.75;;;;;;;;;;6117287;23;20033;-87
2022/10/19 12:05:19;;;;;;;13.02;8.20;;;;;;;;;;6074203;23;20040;-87
2022/10/19 12:08:06;;;;;;;;;;;;;;;;;;;;;
2022/10/19 12:11:42;;;;;;;12.48;8.77;;;;;;;;;;6103612;23;20029;-86
2022/10/19 12:18:03;;;;;;;13.45;9.02;;;;;;;;;;6024057;23;20026;-84
2022/10/19 12:21:09;;;;;;;13.00;8.93;;;;;;;;;;6072101;23;20018;-86
2022/10/19 12:24:43;;;;;;;16.65;9.38;;;;;;;;;;6019278;23;20036;-86
2022/10/19 13:12:16;;;;;;;7.80;6.80;;;;;;;;;;6065153;23;20033;-84
2022/10/19 13:14:57;;;;;;;10.07;7.15;;;;;;;;;;6050478;23;20037;-85
2022/10/19 13:17:37;;;;;;;7.88;6.50;;;;;;;;;;6076945;23;20022;-85
2022/10/19 13:20:24;;;;;;;9.25;6.68;;;;;;;;;;6042989;23;20026;-87
2022/10/19 13:23:04;;;;;;;6.82;5.20;;;;;;;;;;6043957;23;20481;-87
2022/10/19 13:25:38;;;;;;;7.85;5.47;;;;;;;;;;6045035;23;20019;-87
2022/10/19 13:28:37;;;;;;;7.15;6.40;;;;;;;;;;6043232;23;20030;-87
2022/10/19 13:31:22;;;;;;;5.05;4.55;;;;;;;;;;6081969;23;20041;-86
2022/10/19 13:34:00;;;;;;;7.50;5.32;;;;;;;;;;6066762;23;20030;-87
2022/10/19 13:37:15;;;;;;;9.00;8.05;;;;;;;;;;6029660;23;20034;-88
2022/10/19 13:40:57;;;;;;;4.35;3.08;;;;;;;;;;6082061;23;20034;-88
2022/10/19 13:44:05;;;;;;;6.20;4.50;;;;;;;;;;6050881;23;20039;-88
2022/10/19 13:46:51;;;;;;;3.38;3.08;;;;;;;;;;6069074;23;20026;-87
2022/10/19 13:49:53;;;;;;;3.70;3.20;;;;;;;;;;6068738;23;20335;-88
2022/10/19 13:52:43;;;;;;;2.70;2.50;;;;;;;;;;6054166;23;20351;-88
2022/10/19 13:55:21;;;;;;;3.47;2.83;;;;;;;;;;6098000;23;20030;-87
2022/10/19 13:58:12;;;;;;;3.03;2.53;;;;;;;;;;6067379;23;20356;-86
2022/10/19 14:00:45;;;;;;;3.83;3.25;;;;;;;;;;6056094;23;20037;-88
2022/10/19 14:03:28;;;;;;;4.80;3.35;;;;;;;;;;6071664;23;20033;-87
2022/10/19 14:06:32;;;;;;;3.58;3.05;;;;;;;;;;6065345;23;20526;-87
2022/10/19 14:09:15;;;;;;;3.90;3.53;;;;;;;;;;6095234;23;20469;-87
2022/10/19 14:11:45;;;;;;;9.15;4.13;;;;;;;;;;6095658;23;20339;-88
2022/10/19 14:14:17;;;;;;;4.28;3.17;;;;;;;;;;6075668;23;20034;-88
2022/10/19 14:16:46;;;;;;;;;;;;;;;;;;6078546;23;20022;-87
2022/10/19 14:19:42;;;;;;;3.72;2.17;;;;;;;;;;6043311;23;19921;-86
2022/10/19 14:22:32;;;;;;;3.25;2.83;;;;;;;;;;6076179;23;20457;-87
2022/10/19 14:25:25;;;;;;;2.45;2.25;;;;;;;;;;6044263;23;20516;-87
2022/10/19 14:28:01;;;;;;;3.72;2.70;;;;;;;;;;6044486;23;20034;-87
2022/10/19 14:30:34;;;;;;;3.78;2.97;;;;;;;;;;6029902;23;20026;-87
2022/10/19 14:33:14;;;;;;;4.53;2.70;;;;;;;;;;6043815;23;20022;-87
2022/10/19 14:35:50;;;;;;;3.65;2.53;;;;;;;;;;6019924;23;20037;-87
2022/10/19 14:38:26;;;;;;;3.15;2.85;;;;;;;;;;6066800;23;20039;-86
2022/10/19 14:40:56;;;;;;;4.85;3.58;;;;;;;;;;6077837;23;20018;-87
2022/10/19 14:43:46;;;;;;;3.42;3.00;;;;;;;;;;6042765;23;20030;-86
2022/10/19 14:46:14;;;;;;;2.45;2.25;;;;;;;;;;6063837;23;20481;-87
2022/10/19 14:49:01;;;;;;;15.00;4.30;;;;;;;;;;6067551;23;20022;-87
2022/10/19 14:51:33;;;;;;;4.65;3.20;;;;;;;;;;6069833;23;20026;-87
2022/10/19 14:54:41;;;;;;;3.55;2.67;;;;;;;;;;6001941;23;20034;-88
2022/10/19 14:57:48;;;;;;;4.13;2.50;;;;;;;;;;6066758;23;20346;-87
2022/10/19 15:00:21;;;;;;;3.30;3.00;;;;;;;;;;5955570;23;20392;-88
2022/10/19 15:03:05;;;;;;;2.10;1.90;;;;;;;;;;5980185;23;20024;-89
2022/10/19 15:05:35;;;;;;;2.43;2.23;;;;;;;;;;6039368;23;20022;-88
2022/10/19 15:08:18;;;;;;;2.65;2.40;;;;;;;;;;6067827;23;20642;-88
2022/10/19 15:10:48;;;;;;;1.92;1.65;;;;;;;;;;6052871;23;20026;-88
2022/10/19 15:13:46;;;;;;;8.30;3.53;;;;;;;;;;6102357;23;20026;-88
2022/10/19 15:16:30;;;;;;;3.38;2.65;;;;;;;;;;6040400;23;20030;-88
2022/10/19 15:19:05;;;;;;;3.08;2.53;;;;;;;;;;6067509;23;20056;-87
2022/10/19 15:21:33;;;;;;;2.72;2.20;;;;;;;;;;6077050;23;20018;-87
2022/10/19 15:24:06;;;;;;;2.25;1.95;;;;;;;;;;6092350;23;20113;-87
2022/10/19 15:26:39;;;;;;;4.25;3.03;;;;;;;;;;6074107;23;20355;-87
2022/10/19 15:29:12;;;;;;;2.38;1.98;;;;;;;;;;6044111;23;20022;-88
2022/10/19 15:31:40;;;;;;;3.15;2.25;;;;;;;;;;6069252;23;20037;-88
2022/10/19 15:34:28;;;;;;;2.97;2.72;;;;;;;;;;6033856;23;20029;-87
2022/10/19 15:36:59;;;;;;;3.17;2.22;;;;;;;;;;6077496;23;20025;-86
2022/10/19 15:39:31;;;;;;;2.63;2.35;;;;;;;;;;6094934;23;20022;-88
2022/10/19 15:42:34;;;;;;;2.33;2.13;;;;;;;;;;6100496;23;20022;-87
2022/10/19 15:45:25;;;;;;;4.50;2.28;;;;;;;;;;6078048;23;20022;-87
2022/10/19 15:48:12;;;;;;;3.35;3.05;;;;;;;;;;6068461;23;20026;-87
2022/10/19 15:50:46;;;;;;;7.23;2.80;;;;;;;;;;6098398;23;20023;-87
2022/10/19 15:53:15;;;;;;;2.78;2.55;;;;;;;;;;6100837;23;20015;-87
2022/10/19 15:55:45;;;;;;;3.10;2.72;;;;;;;;;;6069016;23;20026;-87
2022/10/19 15:58:15;;;;;;;2.75;1.98;;;;;;;;;;6073525;23;20018;-87
2022/10/19 16:00:43;;;;;;;9.60;4.43;;;;;;;;;;6100451;23;20018;-87
2022/10/19 16:03:14;;;;;;;2.60;2.35;;;;;;;;;;6046946;23;20030;-87
2022/10/19 16:05:41;;;;;;;5.13;2.63;;;;;;;;;;6076939;23;20022;-86
2022/10/19 16:08:12;;;;;;;2.50;2.30;;;;;;;;;;6092479;23;20026;-87
2022/10/19 16:10:45;;;;;;;1.90;1.77;;;;;;;;;;6098050;23;20342;-87
2022/10/19 16:13:14;;;;;;;6.35;2.97;;;;;;;;;;6019665;23;20022;-83
2022/10/19 16:15:49;;;;;;;2.25;2.08;;;;;;;;;;6048143;23;20031;-83
2022/10/19 16:18:38;;;;;;;;;;;;;;;;;;6045071;23;20026;-82
2022/10/19 16:21:06;;;;;;;2.58;1.90;;;;;;;;;;6018096;23;19921;-83
2022/10/19 16:23:37;;;;;;;2.25;2.00;;;;;;;;;;6068053;23;20026;-82
2022/10/19 16:26:15;;;;;;;2.85;2.40;;;;;;;;;;6005846;23;20041;-83
2022/10/19 16:28:43;;;;;;;4.15;3.45;;;;;;;;;;6040563;23;20049;-84
2022/10/19 16:31:11;;;;;;;17.02;5.13;;;;;;;;;;6061989;23;20041;-84
2022/10/19 16:33:45;;;;;;;3.50;2.75;;;;;;;;;;6019046;23;20026;-83
2022/10/19 16:36:33;;;;;;;4.07;3.50;;;;;;;;;;6040433;23;20034;-84
2022/10/19 16:39:03;;;;;;;3.75;2.60;;;;;;;;;;6010911;23;20047;-83
2022/10/19 16:41:37;;;;;;;3.50;2.85;;;;;;;;;;5991775;23;20019;-85
2022/10/19 16:44:20;;;;;;;4.50;3.10;;;;;;;;;;6026967;23;20027;-85
2022/10/19 16:47:02;;;;;;;2.92;2.63;;;;;;;;;;6015055;23;20338;-85
2022/10/19 16:54:25;;;;;;;3.63;2.92;;;;;;;;;;6039238;23;20023;-86
2022/10/19 17:01:37;;;;;;;3.90;3.58;;;;;;;;;;6032212;23;20030;-84
2022/10/19 17:04:58;;;;;;;3.85;3.30;;;;;;;;;;5997517;23;20034;-84
2022/10/19 17:08:32;;;;;;;5.30;3.55;;;;;;;;;;5978180;23;20383;-84
2022/10/19 17:12:20;;;;;;;3.63;3.25;;;;;;;;;;6037319;23;20034;-86
2022/10/19 17:15:44;;;;;;;4.38;3.83;;;;;;;;;;5982514;23;20037;-86
2022/10/19 17:18:14;;;;;;;4.03;3.17;;;;;;;;;;6036719;23;20033;-84
2022/10/19 17:21:07;;;;;;;7.32;3.88;;;;;;;;;;6040183;23;20451;-85
2022/10/19 17:27:57;;;;;;;4.70;3.80;;;;;;;;;;6035620;23;20455;-82
2022/10/19 17:30:43;;;;;;;4.80;4.40;;;;;;;;;;6039199;23;20026;-84
2022/10/19 17:33:20;;;;;;;4.78;4.00;;;;;;;;;;6049735;23;20339;-84
2022/10/19 17:49:36;;;;;;;;;;;;;;;;;;;;;
2022/10/19 17:54:10;;;;;;;4.07;3.40;;;;;;;;;;6033105;23;20023;-85
2022/10/19 17:57:34;;;;;;;4.88;4.38;;;;;;;;;;5998458;23;20481;-82
2022/10/19 18:00:13;;;;;;;5.22;4.68;;;;;;;;;;6033705;23;20426;-83
2022/10/19 18:02:45;;;;;;;7.85;4.30;;;;;;;;;;6015402;23;20071;-83
2022/10/19 18:05:23;;;;;;;7.13;3.72;;;;;;;;;;6033154;23;20023;-83
2022/10/19 18:07:52;;;;;;;6.03;4.47;;;;;;;;;;5985416;23;20031;-84
2022/10/19 18:10:25;;;;;;;5.80;5.22;;;;;;;;;;5974914;23;20019;-83
2022/10/19 18:12:53;;;;;;;6.07;4.55;;;;;;;;;;5985458;23;20027;-83
2022/10/19 18:15:28;;;;;;;4.90;4.15;;;;;;;;;;6008627;23;20026;-83
2022/10/19 18:18:00;;;;;;;4.28;3.50;;;;;;;;;;6074903;23;20021;-83
2022/10/19 18:20:38;;;;;;;6.43;5.05;;;;;;;;;;6078558;23;20018;-89
2022/10/19 18:23:05;;;;;;;12.98;5.32;;;;;;;;;;6072285;23;20034;-81
2022/10/19 18:25:36;;;;;;;5.15;3.95;;;;;;;;;;6077149;23;20743;-81
2022/10/19 18:28:23;;;;;;;11.88;5.25;;;;;;;;;;6066937;23;20037;-81
2022/10/19 18:30:51;;;;;;;5.88;5.18;;;;;;;;;;6065643;23;20035;-81
2022/10/19 18:33:22;;;;;;;5.63;4.85;;;;;;;;;;6078129;23;20018;-82
2022/10/19 18:35:56;;;;;;;4.80;3.90;;;;;;;;;;6043693;23;20786;-82
2022/10/19 18:38:34;;;;;;;4.63;3.78;;;;;;;;;;6044273;23;20037;-82
2022/10/19 18:41:18;;;;;;;5.22;4.68;;;;;;;;;;6044718;23;20031;-82
2022/10/19 18:44:00;;;;;;;5.72;4.13;;;;;;;;;;6045782;23;20730;-82
2022/10/19 18:46:38;;;;;;;5.32;4.18;;;;;;;;;;6041954;23;20022;-82
2022/10/19 18:49:07;;;;;;;7.30;4.60;;;;;;;;;;6078127;23;20020;-83
2022/10/19 18:51:48;;;;;;;8.00;4.55;;;;;;;;;;6053049;23;20027;-83
2022/10/19 18:54:35;;;;;;;5.38;4.47;;;;;;;;;;6029667;23;20022;-83
2022/10/19 18:57:30;;;;;;;9.75;4.78;;;;;;;;;;6070224;23;20030;-83
2022/10/19 19:00:03;;;;;;;6.22;4.80;;;;;;;;;;6023829;23;20875;-83
2022/10/19 19:02:33;;;;;;;7.22;4.85;;;;;;;;;;6040610;23;20026;-83
2022/10/19 19:05:16;;;;;;;8.20;4.20;;;;;;;;;;6076394;23;20018;-82
2022/10/19 19:07:54;;;;;;;7.35;5.65;;;;;;;;;;6043302;23;20030;-83
2022/10/19 19:10:56;;;;;;;5.82;4.70;;;;;;;;;;6041894;23;20029;-81
2022/10/19 19:13:24;;;;;;;8.07;5.03;;;;;;;;;;6077118;23;20015;-81
2022/10/19 19:15:58;;;;;;;6.70;5.80;;;;;;;;;;6067655;23;20909;-81
2022/10/19 19:18:26;;;;;;;6.75;5.18;;;;;;;;;;6073774;23;20027;-81
2022/10/19 19:20:54;;;;;;;7.40;4.78;;;;;;;;;;6066178;23;20327;-83
2022/10/19 19:23:22;;;;;;;10.27;4.78;;;;;;;;;;6070108;23;20033;-84
2022/10/19 19:25:49;;;;;;;7.97;6.22;;;;;;;;;;6077414;23;20029;-84
2022/10/19 19:28:17;;;;;;;10.30;7.18;;;;;;;;;;6066432;23;20026;-83
2022/10/19 19:30:46;;;;;;;7.57;5.13;;;;;;;;;;6072066;23;20477;-84
2022/10/19 19:33:14;;;;;;;5.18;4.25;;;;;;;;;;6042146;23;20022;-84
2022/10/19 19:35:43;;;;;;;6.80;5.97;;;;;;;;;;6027453;23;20030;-81
2022/10/19 19:38:11;;;;;;;9.05;6.10;;;;;;;;;;6031333;23;20022;-81
2022/10/19 19:40:40;;;;;;;11.02;6.70;;;;;;;;;;6042179;23;20018;-81
2022/10/19 19:43:08;;;;;;;9.63;7.35;;;;;;;;;;6096427;23;20025;-81
2022/10/19 19:45:36;;;;;;;11.05;7.93;;;;;;;;;;6075614;23;20025;-81
2022/10/19 19:48:05;;;;;;;9.02;6.88;;;;;;;;;;6066867;23;20477;-81
2022/10/19 19:50:33;;;;;;;6.72;5.28;;;;;;;;;;6098804;23;20022;-81
2022/10/19 19:53:01;;;;;;;5.70;4.70;;;;;;;;;;6066549;23;20018;-81
2022/10/19 19:55:32;;;;;;;11.63;5.75;;;;;;;;;;6069306;23;20033;-81
2022/10/19 19:58:05;;;;;;;7.38;5.97;;;;;;;;;;6076197;23;20014;-81
2022/10/19 20:00:33;;;;;;;11.05;6.88;;;;;;;;;;6076405;23;20468;-81
2022/10/19 20:03:01;;;;;;;10.23;8.10;;;;;;;;;;6040808;23;20022;-81
2022/10/19 20:05:29;;;;;;;13.43;5.78;;;;;;;;;;6042692;23;20022;-81
2022/10/19 20:07:56;;;;;;;8.30;5.97;;;;;;;;;;6041332;23;20354;-81
2022/10/19 20:10:28;;;;;;;13.00;7.18;;;;;;;;;;6099643;23;20038;-81
2022/10/19 20:12:57;;;;;;;8.52;6.28;;;;;;;;;;6077311;23;20019;-82
2022/10/19 20:15:25;;;;;;;10.10;7.97;;;;;;;;;;6094815;23;20304;-81
2022/10/19 20:17:53;;;;;;;9.32;8.43;;;;;;;;;;6042683;23;20450;-81
2022/10/19 20:20:21;;;;;;;10.40;7.00;;;;;;;;;;6041573;23;20052;-81
2022/10/19 20:22:49;;;;;;;8.70;6.30;;;;;;;;;;6072303;23;20018;-81
2022/10/19 20:25:16;;;;;;;16.95;8.95;;;;;;;;;;6042935;23;20030;-81
2022/10/19 20:27:44;;;;;;;14.95;8.90;;;;;;;;;;6040653;23;20031;-81
2022/10/19 20:30:12;;;;;;;14.18;8.05;;;;;;;;;;6100164;23;20446;-81
2022/10/19 20:32:40;;;;;;;11.68;8.48;;;;;;;;;;6076260;23;20439;-80
2022/10/19 20:35:08;;;;;;;16.58;8.77;;;;;;;;;;6041298;23;20037;-81
2022/10/19 20:37:36;;;;;;;10.45;7.82;;;;;;;;;;6076114;23;20023;-81
2022/10/19 20:40:04;;;;;;;11.98;8.27;;;;;;;;;;6092637;23;20037;-80
2022/10/19 20:42:35;;;;;;;13.43;8.73;;;;;;;;;;6073245;23;20347;-80
2022/10/19 20:45:04;;;;;;;15.50;9.55;;;;;;;;;;6094130;23;20022;-81
2022/10/19 20:47:32;;;;;;;15.20;10.02;;;;;;;;;;6065230;23;20027;-80
2022/10/19 20:50:00;;;;;;;14.95;10.10;;;;;;;;;;6100852;23;20018;-80
2022/10/19 20:52:27;;;;;;;13.70;10.40;;;;;;;;;;6101332;23;20307;-81
2022/10/19 20:54:55;;;;;;;17.65;8.93;;;;;;;;;;6065635;23;20026;-81
2022/10/19 20:57:23;;;;;;;17.98;10.93;;;;;;;;;;6044788;23;20034;-81
2022/10/19 20:59:50;;;;;;;15.75;9.60;;;;;;;;;;6043779;23;20038;-80
2022/10/19 21:02:18;;;;;;;17.20;12.30;;;;;;;;;;6076020;23;20362;-81
2022/10/19 21:04:46;;;;;;;20.35;11.82;;;;;;;;;;6068030;23;20042;-81
2022/10/19 21:07:14;;;;;;;15.98;11.93;;;;;;;;;;6066710;23;20038;-81
2022/10/19 21:09:41;;;;;;;17.13;10.05;;;;;;;;;;6078408;23;20046;-81
2022/10/19 21:12:12;;;;;;;18.35;11.80;;;;;;;;;;6068510;23;20029;-81
2022/10/19 21:14:39;;;;;;;19.67;14.25;;;;;;;;;;6073852;23;20049;-81
2022/10/19 21:17:10;;;;;;;24.33;14.63;;;;;;;;;;6044708;23;20040;-81
2022/10/19 21:19:37;;;;;;;18.60;12.33;;;;;;;;;;6096124;23;20666;-80
2022/10/19 21:22:05;;;;;;;21.45;12.43;;;;;;;;;;6078979;23;20021;-82
2022/10/19 21:24:34;;;;;;;20.45;12.88;;;;;;;;;;6049245;23;20014;-82
2022/10/19 21:27:04;;;;;;;20.35;14.32;;;;;;;;;;6070925;23;20022;-82
2022/10/19 21:29:32;;;;;;;16.30;12.32;;;;;;;;;;6048337;23;20015;-81
2022/10/19 21:32:00;;;;;;;18.10;12.80;;;;;;;;;;6073687;23;20031;-81
2022/10/19 21:34:30;;;;;;;19.98;11.30;;;;;;;;;;6079569;23;20034;-81
2022/10/19 21:36:58;;;;;;;25.05;15.68;;;;;;;;;;6071778;23;20334;-81
2022/10/19 21:39:26;;;;;;;19.50;14.48;;;;;;;;;;6100050;23;20022;-82
2022/10/19 21:41:54;;;;;;;20.15;11.93;;;;;;;;;;6107890;23;20585;-80
2022/10/19 21:44:22;;;;;;;19.48;11.98;;;;;;;;;;6047824;23;20434;-81
2022/10/19 21:46:50;;;;;;;19.33;11.77;;;;;;;;;;6047456;23;20026;-81
2022/10/19 21:49:18;;;;;;;21.67;14.63;;;;;;;;;;6080216;23;20025;-81
2022/10/19 21:51:50;;;;;;;24.85;12.65;;;;;;;;;;6071282;23;20030;-81
2022/10/19 21:54:20;;;;;;;20.40;13.65;;;;;;;;;;6105571;23;20018;-81
2022/10/19 21:56:48;;;;;;;20.48;12.40;;;;;;;;;;6048254;23;20018;-88
2022/10/19 21:59:18;;;;;;;20.63;12.35;;;;;;;;;;6048133;23;20669;-81
2022/10/19 22:01:49;;;;;;;19.40;14.45;;;;;;;;;;6059157;23;20015;-81
2022/10/19 22:04:18;;;;;;;23.50;14.90;;;;;;;;;;6048125;23;20022;-82
2022/10/19 22:06:45;;;;;;;20.15;12.45;;;;;;;;;;6077122;23;20022;-80
2022/10/19 22:09:15;;;;;;;22.95;15.68;;;;;;;;;;6072251;23;20338;-80
2022/10/19 22:11:49;;;;;;;23.90;15.63;;;;;;;;;;6073905;23;20022;-81
2022/10/19 22:14:17;;;;;;;20.42;14.18;;;;;;;;;;6080422;23;20026;-82
2022/10/19 22:16:47;;;;;;;21.08;14.02;;;;;;;;;;6047560;23;20320;-81
2022/10/19 22:19:15;;;;;;;19.70;11.80;;;;;;;;;;6046799;23;20034;-83
2022/10/19 22:21:43;;;;;;;22.48;15.25;;;;;;;;;;6070993;23;20029;-80
2022/10/19 22:24:12;;;;;;;25.65;15.70;;;;;;;;;;6047378;23;20454;-81
2022/10/19 22:26:42;;;;;;;28.67;15.05;;;;;;;;;;6077854;23;20010;-81
2022/10/19 22:29:10;;;;;;;20.88;14.93;;;;;;;;;;6081974;23;20010;-80
2022/10/19 22:31:38;;;;;;;28.10;17.30;;;;;;;;;;6047554;23;20355;-80
2022/10/19 22:34:07;;;;;;;28.20;16.73;;;;;;;;;;6047023;23;20022;-81
2022/10/19 22:36:35;;;;;;;33.50;19.45;;;;;;;;;;6047412;23;20018;-81
2022/10/19 22:39:04;;;;;;;32.55;18.90;;;;;;;;;;6045373;23;20345;-81
2022/10/19 22:41:32;;;;;;;23.08;18.67;;;;;;;;;;6047519;23;20022;-81
2022/10/19 22:43:59;;;;;;;33.03;16.75;;;;;;;;;;6047472;23;20029;-80
2022/10/19 22:46:27;;;;;;;27.58;15.25;;;;;;;;;;6078677;23;20021;-81
2022/10/19 22:48:55;;;;;;;22.83;13.80;;;;;;;;;;6072565;23;20019;-82
2022/10/19 22:51:22;;;;;;;26.70;15.73;;;;;;;;;;6047035;23;20023;-81
2022/10/19 22:53:50;;;;;;;26.65;16.88;;;;;;;;;;6071931;23;20026;-81
2022/10/19 22:56:18;;;;;;;33.55;18.95;;;;;;;;;;6047271;23;20065;-81
2022/10/19 22:58:48;;;;;;;27.02;15.43;;;;;;;;;;6047524;23;20022;-82
2022/10/19 23:01:16;;;;;;;22.70;15.52;;;;;;;;;;6047926;23;20045;-81
2022/10/19 23:03:44;;;;;;;23.75;16.55;;;;;;;;;;6047112;23;20026;-81
2022/10/19 23:06:13;;;;;;;17.48;11.30;;;;;;;;;;6079379;23;20018;-83
2022/10/19 23:08:41;;;;;;;27.27;18.23;;;;;;;;;;6081359;23;20014;-81
2022/10/19 23:11:16;;;;;;;26.20;16.45;;;;;;;;;;6046863;23;20025;-81
2022/10/19 23:13:44;;;;;;;26.98;17.08;;;;;;;;;;6047545;23;20025;-81
2022/10/19 23:16:11;;;;;;;25.67;17.42;;;;;;;;;;6096238;23;20461;-80
2022/10/19 23:18:40;;;;;;;30.92;19.40;;;;;;;;;;6070343;23;20029;-80
2022/10/19 23:21:10;;;;;;;23.50;15.35;;;;;;;;;;6070635;23;20339;-80
2022/10/19 23:23:38;;;;;;;40.97;17.23;;;;;;;;;;6070498;23;20049;-81
2022/10/19 23:26:08;;;;;;;24.85;16.00;;;;;;;;;;6105254;23;20010;-80
2022/10/19 23:28:37;;;;;;;21.67;14.82;;;;;;;;;;6081500;23;20430;-83
2022/10/19 23:31:06;;;;;;;27.08;18.98;;;;;;;;;;6100643;23;20371;-80
2022/10/19 23:33:34;;;;;;;27.45;16.42;;;;;;;;;;6106066;23;20022;-80
2022/10/19 23:36:09;;;;;;;23.77;16.00;;;;;;;;;;6071345;23;20030;-80
2022/10/19 23:38:37;;;;;;;25.60;15.50;;;;;;;;;;6102797;23;20033;-81
2022/10/19 23:41:08;;;;;;;26.67;18.10;;;;;;;;;;6080477;23;20022;-82
2022/10/19 23:43:36;;;;;;;22.15;14.00;;;;;;;;;;6098752;23;20037;-86
2022/10/19 23:46:07;;;;;;;23.23;15.50;;;;;;;;;;6047163;23;20307;-80
2022/10/19 23:48:35;;;;;;;21.73;17.30;;;;;;;;;;6080505;23;20018;-82
2022/10/19 23:51:07;;;;;;;19.85;15.27;;;;;;;;;;6100951;23;20034;-80
2022/10/19 23:53:36;;;;;;;29.02;18.55;;;;;;;;;;6081268;23;20434;-81
2022/10/19 23:56:09;;;;;;;22.83;15.50;;;;;;;;;;6096911;23;20022;-80
2022/10/19 23:58:37;;;;;;;23.67;16.73;;;;;;;;;;6103009;23;20026;-81
